IVAO ES Tour IFR-A 2013 Etapa 13

IVAO ES Tour IFR-A 2013 Etapa 13

Salamanca ( LESA ) – Valencia ( LEVC )

Datos generales del vuelo
 Fecha 03-12-2013  Avión  B737-800 winglets
 Ruta MINVI UL155 NVS UM191 PDT UM871 NANDO UL150 ASTRO  Nivel de vuelo FL350
 Origen LESA  Destino LEVC
 Velocidad M0.787  Distancia 315Nm
 Distancia real 297Nm ETE 00:55
 ETA 16:55Z  FOB 02:45
 Hora salida 16:05Z Hora llegada 16:55Z
 Pax 7 TOW 56839Kg
 MTOW  78471Kg Fuel 6344Kg
 Fuel utilizado 5100Kg ZFW 50494Kg
Peso carga 8608Kg Peso pasaje 473Kg
V1 116Knots Vr 126Knots
 V2 138Knots  Vref 149Knots
 Velocidad vertical toma
133,5 ft/m  

 

Datos LESA

Metar: LESA 031530Z 02004KT 330V060 CAVOK 09/M01 Q1025
Pista Activa:  21
Salida: VFR

Datos LEVC

Metar: LEVC 031600Z 08005KT 9999 SCT035 SCT050 15/09 Q1026 NOSIG
Pista Activa: 12
Llegada: ASTRO3J
App:  ILS Z 12 transición OPERA